Time;durP1;ratioP1;P1;durP2;ratioP2;P2;SDS_P1;SDS_P2;PMS_P1;PMS_P2;Temp;Humidity;BMP_temperature;BMP_pressure;BME280_temperature;BME280_humidity;BME280_pressure;Samples;Min_cycle;Max_cycle;Signal;HPM_P1;HPM_P2
2023/04/15 00:00:41;;;;;;;7.18;2.90;;;;;;;15.92;100.00;95232.50;4963298;28;20542;-46
2023/04/15 00:03:09;;;;;;;4.50;2.53;;;;;;;16.14;96.33;95235.75;4963727;28;20494;-54
2023/04/15 00:05:39;;;;;;;4.70;2.75;;;;;;;16.15;96.00;95221.41;4966392;28;20087;-53
2023/04/15 00:08:07;;;;;;;3.60;2.63;;;;;;;15.66;100.00;95228.88;4968782;28;20090;-47
2023/04/15 00:10:36;;;;;;;5.57;2.50;;;;;;;15.84;100.00;95222.94;4967361;28;20089;-49
2023/04/15 00:13:04;;;;;;;4.90;2.50;;;;;;;15.47;100.00;95229.69;4964813;28;20094;-49
2023/04/15 00:15:32;;;;;;;5.75;2.70;;;;;;;15.57;100.00;95215.97;4962524;28;20089;-47
2023/04/15 00:18:01;;;;;;;5.47;3.28;;;;;;;15.37;100.00;95221.31;4964473;28;20494;-50
2023/04/15 00:20:29;;;;;;;6.28;2.78;;;;;;;14.96;100.00;95215.16;4965281;28;20549;-45
2023/04/15 00:22:59;;;;;;;7.30;2.78;;;;;;;15.04;100.00;95211.50;4964735;28;20088;-49
2023/04/15 00:25:27;;;;;;;3.55;2.35;;;;;;;15.30;100.00;95208.03;4969192;28;20111;-46
2023/04/15 00:27:56;;;;;;;6.85;3.17;;;;;;;15.27;100.00;95211.09;4965168;28;20086;-51
2023/04/15 00:30:25;;;;;;;5.22;2.70;;;;;;;15.25;100.00;95209.69;4966027;28;20375;-49
2023/04/15 00:32:54;;;;;;;5.57;3.65;;;;;;;15.25;100.00;95201.72;4968039;28;20090;-46
2023/04/15 00:35:22;;;;;;;5.85;2.72;;;;;;;15.25;100.00;95199.88;4969737;28;20086;-49
2023/04/15 00:37:51;;;;;;;12.73;3.67;;;;;;;15.25;100.00;95197.22;4969988;28;20090;-54
2023/04/15 00:40:23;;;;;;;5.95;3.28;;;;;;;15.25;100.00;95196.41;4961693;28;20093;-47
2023/04/15 00:42:52;;;;;;;8.07;3.35;;;;;;;15.70;100.00;95197.41;4965842;28;20101;-48
2023/04/15 00:45:20;;;;;;;8.30;3.47;;;;;;;15.54;100.00;95195.13;4970894;28;20089;-47
2023/04/15 00:47:48;;;;;;;8.77;3.20;;;;;;;15.33;100.00;95191.69;4963281;28;20094;-52
2023/04/15 00:50:17;;;;;;;5.68;3.42;;;;;;;15.63;100.00;95193.91;4970262;28;20466;-50
2023/04/15 00:52:45;;;;;;;7.82;3.20;;;;;;;15.57;100.00;95192.06;4969482;28;20094;-50
2023/04/15 00:55:14;;;;;;;7.95;4.20;;;;;;;15.41;100.00;95190.66;4973500;28;20573;-50
2023/04/15 00:57:44;;;;;;;5.32;3.72;;;;;;;15.50;100.00;95192.06;4969234;28;20541;-54
2023/04/15 01:00:13;;;;;;;5.65;3.30;;;;;;;15.27;100.00;95197.81;4969714;28;20082;-48
2023/04/15 01:02:41;;;;;;;4.63;3.00;;;;;;;15.39;100.00;95193.53;4970711;28;20074;-47
2023/04/15 01:05:10;;;;;;;5.95;3.00;;;;;;;15.43;100.00;95192.09;4970415;28;20078;-51
2023/04/15 01:07:38;;;;;;;7.63;3.85;;;;;;;15.42;100.00;95189.66;4969290;28;20038;-53
2023/04/15 01:10:08;;;;;;;5.57;3.03;;;;;;;15.45;100.00;95189.25;4968100;28;20561;-51
2023/04/15 01:12:38;;;;;;;6.35;3.50;;;;;;;15.63;100.00;95193.91;4962781;28;20039;-51
2023/04/15 01:15:09;;;;;;;7.32;4.22;;;;;;;16.21;100.00;95191.31;4969782;28;20081;-49
2023/04/15 01:17:38;;;;;;;11.10;4.40;;;;;;;16.06;100.00;95191.56;4962280;28;20089;-47
2023/04/15 01:20:11;;;;;;;5.82;3.83;;;;;;;16.19;99.64;95180.06;4968540;28;20581;-51
2023/04/15 01:22:39;;;;;;;5.60;2.83;;;;;;;16.34;92.94;95185.94;4968747;28;20074;-49
2023/04/15 01:25:11;;;;;;;5.82;3.70;;;;;;;16.48;92.26;95181.38;4970500;28;20078;-48
2023/04/15 01:27:41;;;;;;;8.43;3.90;;;;;;;16.69;89.54;95180.25;4962330;28;20078;-51
2023/04/15 01:30:11;;;;;;;7.53;4.18;;;;;;;16.50;88.24;95186.47;4968405;28;20086;-48
2023/04/15 01:32:39;;;;;;;6.03;3.67;;;;;;;16.04;94.84;95180.34;4968367;28;20100;-50
2023/04/15 01:35:08;;;;;;;7.47;4.55;;;;;;;15.59;100.00;95179.41;4969658;28;20070;-49
2023/04/15 01:37:36;;;;;;;7.43;3.72;;;;;;;15.79;100.00;95174.88;4969016;28;20113;-46
2023/04/15 01:40:06;;;;;;;7.22;3.88;;;;;;;15.74;100.00;95181.84;4967968;28;20480;-48
2023/04/15 01:42:36;;;;;;;8.68;4.35;;;;;;;15.91;100.00;95180.38;4961575;28;20521;-47
2023/04/15 01:45:07;;;;;;;9.02;4.30;;;;;;;16.07;99.42;95171.09;4968923;28;20105;-47
2023/04/15 01:47:35;;;;;;;4.75;3.58;;;;;;;15.74;100.00;95181.84;4966104;28;20082;-51
2023/04/15 01:50:04;;;;;;;8.23;3.30;;;;;;;15.68;100.00;95182.69;4969272;28;20078;-51
2023/04/15 01:52:32;;;;;;;7.40;4.07;;;;;;;15.77;100.00;95181.44;4966901;28;20082;-50
2023/04/15 01:55:00;;;;;;;7.43;4.22;;;;;;;15.72;100.00;95186.56;4969591;28;20078;-50
2023/04/15 01:57:29;;;;;;;6.72;3.67;;;;;;;15.64;100.00;95188.38;4968568;28;20082;-50
2023/04/15 01:59:57;;;;;;;7.85;4.25;;;;;;;15.35;100.00;95188.84;4966950;28;20086;-49
2023/04/15 02:02:27;;;;;;;8.05;4.53;;;;;;;15.76;100.00;95185.09;4965545;28;20086;-50
2023/04/15 02:04:55;;;;;;;8.05;4.57;;;;;;;15.88;100.00;95180.78;4969709;28;20093;-50
2023/04/15 02:07:24;;;;;;;11.40;4.20;;;;;;;16.09;95.85;95180.50;4967522;28;20113;-47
2023/04/15 02:09:52;;;;;;;6.55;3.70;;;;;;;15.39;100.00;95190.88;4965859;28;20086;-49
2023/04/15 02:12:21;;;;;;;8.02;4.50;;;;;;;15.50;100.00;95181.44;4967829;28;20082;-52
2023/04/15 02:14:49;;;;;;;7.30;4.10;;;;;;;15.79;100.00;95176.72;4966422;28;20051;-48
2023/04/15 02:17:17;;;;;;;7.85;4.70;;;;;;;15.90;99.71;95171.59;4961701;28;20082;-48
2023/04/15 02:19:48;;;;;;;8.13;4.47;;;;;;;15.97;98.76;95176.06;4966622;28;20097;-48
2023/04/15 02:22:17;;;;;;;8.30;3.58;;;;;;;15.93;98.25;95182.81;4967915;28;20090;-48
2023/04/15 02:24:46;;;;;;;8.32;4.68;;;;;;;15.81;100.00;95183.47;4969501;28;20082;-48
2023/04/15 02:27:17;;;;;;;8.63;4.22;;;;;;;15.58;100.00;95185.72;4966933;28;20534;-50
2023/04/15 02:29:46;;;;;;;7.25;4.35;;;;;;;15.57;100.00;95187.56;4967131;28;20094;-49
2023/04/15 02:32:14;;;;;;;9.73;4.70;;;;;;;15.79;100.00;95182.84;4967482;28;20086;-49
2023/04/15 02:34:42;;;;;;;12.18;4.78;;;;;;;15.74;100.00;95200.47;4969371;28;20715;-48
2023/04/15 02:37:13;;;;;;;9.48;4.55;;;;;;;15.73;100.00;95197.00;4966814;28;20113;-47
2023/04/15 02:39:41;;;;;;;7.60;4.80;;;;;;;15.89;99.43;95201.84;4968147;28;20109;-49
2023/04/15 02:42:10;;;;;;;6.75;4.20;;;;;;;15.75;99.26;95202.91;4967849;28;20483;-48
2023/04/15 02:44:38;;;;;;;9.30;5.25;;;;;;;15.87;98.71;95201.25;4959514;28;20091;-50
2023/04/15 02:47:07;;;;;;;12.10;4.90;;;;;;;15.68;100.00;95195.97;4959684;28;20095;-48
2023/04/15 02:49:35;;;;;;;8.05;4.68;;;;;;;15.81;99.06;95202.06;4958887;28;20618;-46
2023/04/15 02:52:05;;;;;;;7.65;4.85;;;;;;;15.97;98.50;95200.81;4962943;28;20089;-49
2023/04/15 02:54:35;;;;;;;8.63;3.97;;;;;;;15.86;100.00;95198.78;4970136;28;20069;-49
2023/04/15 02:57:05;;;;;;;9.00;4.30;;;;;;;16.05;96.65;95195.25;4967627;28;20083;-47
2023/04/15 02:59:33;;;;;;;10.80;5.88;;;;;;;15.59;100.00;95196.16;4963687;28;20090;-47
2023/04/15 03:02:02;;;;;;;8.93;5.80;;;;;;;16.05;97.95;95195.25;4964514;28;20090;-47
2023/04/15 03:04:30;;;;;;;9.63;5.05;;;;;;;15.91;98.31;95199.00;4968900;28;20078;-46
2023/04/15 03:06:59;;;;;;;10.30;5.88;;;;;;;15.83;100.00;95202.69;4966690;28;20082;-50
2023/04/15 03:09:28;;;;;;;10.80;4.72;;;;;;;15.93;96.90;95207.56;4964877;28;20582;-47
2023/04/15 03:11:57;;;;;;;7.00;4.75;;;;;;;16.08;96.35;95202.00;4961502;28;20534;-48
2023/04/15 03:14:26;;;;;;;9.45;5.68;;;;;;;16.20;94.42;95204.81;4968786;28;20086;-47
2023/04/15 03:16:54;;;;;;;9.05;5.32;;;;;;;16.37;93.37;95203.31;4967550;28;20553;-48
2023/04/15 03:19:23;;;;;;;9.88;5.32;;;;;;;16.41;89.60;95203.72;4968226;28;20078;-54
2023/04/15 03:21:51;;;;;;;10.18;5.75;;;;;;;16.34;91.26;95203.72;4967639;28;20090;-52
2023/04/15 03:24:20;;;;;;;14.25;5.68;;;;;;;16.30;91.18;95199.88;4968967;28;20107;-47
2023/04/15 03:26:48;;;;;;;10.18;6.05;;;;;;;16.37;91.56;95201.47;4964939;28;20460;-52
2023/04/15 03:29:18;;;;;;;9.85;5.68;;;;;;;16.05;95.23;95205.09;4967538;28;20070;-47
2023/04/15 03:31:46;;;;;;;11.13;5.30;;;;;;;16.40;89.75;95200.22;4966337;28;20134;-51
2023/04/15 03:34:14;;;;;;;7.55;4.93;;;;;;;15.61;98.38;95207.38;4970756;28;20502;-47
2023/04/15 03:36:43;;;;;;;10.77;5.03;;;;;;;15.65;98.26;95205.13;4968433;28;20078;-50
2023/04/15 03:39:11;;;;;;;9.93;5.68;;;;;;;15.15;100.00;95200.28;4971441;28;20097;-46
2023/04/15 03:41:40;;;;;;;8.25;5.32;;;;;;;15.72;100.00;95200.66;4972476;28;20091;-47
2023/04/15 03:44:08;;;;;;;8.57;5.65;;;;;;;15.87;99.00;95197.78;4968639;28;20858;-48
2023/04/15 03:46:38;;;;;;;10.40;5.20;;;;;;;15.29;100.00;95198.44;4970825;28;20573;-51
2023/04/15 03:49:06;;;;;;;8.35;4.55;;;;;;;15.39;100.00;95196.19;4968544;28;20098;-47
2023/04/15 03:51:35;;;;;;;9.82;5.10;;;;;;;15.50;100.00;95191.25;4971091;28;20089;-48
2023/04/15 03:54:04;;;;;;;8.68;4.90;;;;;;;15.27;100.00;95202.31;4971715;28;20082;-49
2023/04/15 03:56:32;;;;;;;10.35;4.60;;;;;;;15.50;100.00;95185.94;4973523;28;20078;-47
2023/04/15 03:59:01;;;;;;;9.65;5.60;;;;;;;15.65;100.00;95184.69;4969181;28;20094;-48
2023/04/15 04:01:30;;;;;;;7.68;4.40;;;;;;;15.65;100.00;95184.69;4967360;28;20440;-49
2023/04/15 04:03:59;;;;;;;7.15;4.70;;;;;;;15.01;100.00;95185.34;4955294;28;20870;-50
2023/04/15 04:06:28;;;;;;;9.38;5.68;;;;;;;15.53;100.00;95186.34;4969240;28;20058;-47
2023/04/15 04:08:56;;;;;;;7.72;4.65;;;;;;;15.14;100.00;95192.50;4963429;28;20067;-45
2023/04/15 04:11:25;;;;;;;11.77;5.97;;;;;;;15.47;100.00;95183.69;4969402;28;20089;-48
2023/04/15 04:13:53;;;;;;;10.70;5.72;;;;;;;14.92;100.00;95183.91;4971840;28;20082;-48
2023/04/15 04:16:21;;;;;;;10.80;4.78;;;;;;;15.07;100.00;95192.50;4968767;28;20078;-48
2023/04/15 04:18:50;;;;;;;9.10;5.30;;;;;;;15.20;100.00;95203.13;4971888;28;20102;-49
2023/04/15 04:21:19;;;;;;;8.23;5.10;;;;;;;15.33;100.00;95191.69;4972903;28;20471;-49
2023/04/15 04:23:48;;;;;;;11.40;4.93;;;;;;;15.58;100.00;95191.84;4970736;28;20090;-47
2023/04/15 04:26:16;;;;;;;11.40;6.00;;;;;;;15.77;95.28;95184.09;4968496;28;20090;-49
2023/04/15 04:28:44;;;;;;;7.65;4.57;;;;;;;15.80;95.77;95194.31;4963240;28;20102;-49
2023/04/15 04:31:14;;;;;;;6.73;3.83;;;;;;;15.94;90.39;95195.09;4965534;28;20070;-47
2023/04/15 04:33:42;;;;;;;10.45;5.18;;;;;;;15.80;92.74;95189.00;4965964;28;20094;-49
2023/04/15 04:36:11;;;;;;;10.68;5.40;;;;;;;15.72;95.94;95197.19;4965668;28;20101;-50
2023/04/15 04:38:40;;;;;;;8.43;4.55;;;;;;;15.84;96.02;95191.03;4972774;28;20098;-49
2023/04/15 04:41:09;;;;;;;8.90;4.87;;;;;;;15.90;92.19;95181.41;4968814;28;20105;-52
2023/04/15 04:43:37;;;;;;;10.80;5.30;;;;;;;15.07;100.00;95196.97;4966516;28;20078;-50
2023/04/15 04:46:05;;;;;;;6.25;3.47;;;;;;;15.20;100.00;95192.50;4966357;28;20187;-49
2023/04/15 04:48:34;;;;;;;11.40;5.10;;;;;;;15.63;100.00;95199.22;4967847;28;20087;-50
2023/04/15 04:51:02;;;;;;;5.78;3.50;;;;;;;15.49;98.46;95197.63;4963098;28;20093;-49
2023/04/15 04:53:30;;;;;;;7.32;3.90;;;;;;;15.05;100.00;95199.03;4962515;28;20101;-48
2023/04/15 04:56:00;;;;;;;5.53;3.78;;;;;;;15.11;100.00;95201.72;4970767;28;20082;-50
2023/04/15 04:58:28;;;;;;;7.07;3.87;;;;;;;15.42;100.00;95189.66;4964112;28;20082;-49
2023/04/15 05:00:57;;;;;;;6.75;3.80;;;;;;;14.60;100.00;95191.63;4964218;28;20093;-51
2023/04/15 05:03:26;;;;;;;7.13;3.35;;;;;;;14.94;100.00;95188.00;4964659;28;20078;-53
2023/04/15 05:05:54;;;;;;;5.90;3.20;;;;;;;15.19;100.00;95192.72;4964056;28;20086;-51
2023/04/15 05:08:23;;;;;;;5.55;3.22;;;;;;;15.17;100.00;95192.09;4964713;28;20492;-46
2023/04/15 05:10:51;;;;;;;5.28;3.40;;;;;;;15.58;100.00;95194.50;4949288;28;20086;-46
2023/04/15 05:13:21;;;;;;;7.70;3.50;;;;;;;15.33;100.00;95196.19;4951325;28;20074;-46
2023/04/15 05:15:49;;;;;;;5.07;3.47;;;;;;;15.51;100.00;95191.03;4961567;28;20479;-48
2023/04/15 05:18:17;;;;;;;7.38;3.00;;;;;;;14.98;100.00;95196.38;4966804;28;20113;-46
2023/04/15 05:20:46;;;;;;;6.40;4.07;;;;;;;15.08;100.00;95202.09;4967940;28;20086;-49
2023/04/15 05:23:14;;;;;;;7.63;4.38;;;;;;;15.36;100.00;95198.44;4967314;28;20082;-48
2023/04/15 05:25:42;;;;;;;9.07;3.42;;;;;;;15.11;100.00;95206.19;4963320;28;20089;-52
2023/04/15 05:28:11;;;;;;;6.43;3.65;;;;;;;15.39;99.93;95200.69;4965152;28;20569;-51
2023/04/15 05:30:41;;;;;;;7.47;4.03;;;;;;;15.61;99.23;95198.59;4963224;28;20090;-51
2023/04/15 05:33:09;;;;;;;5.32;3.47;;;;;;;15.18;100.00;95212.31;4963829;28;20082;-48
2023/04/15 05:35:38;;;;;;;5.53;2.83;;;;;;;15.22;100.00;95204.78;4965019;28;20082;-45
2023/04/15 05:38:06;;;;;;;6.80;3.90;;;;;;;15.28;100.00;95212.75;4962094;28;20082;-47
2023/04/15 05:40:35;;;;;;;6.55;3.17;;;;;;;15.51;98.53;95209.66;4966264;28;20448;-46
2023/04/15 05:43:03;;;;;;;4.32;2.83;;;;;;;15.76;97.92;95212.53;4961679;28;20086;-47
2023/04/15 05:45:31;;;;;;;8.35;3.33;;;;;;;15.54;97.32;95211.91;4958594;28;20086;-53
2023/04/15 05:48:01;;;;;;;5.18;3.45;;;;;;;15.69;99.43;95209.06;4959090;28;20411;-50
2023/04/15 05:50:29;;;;;;;3.97;2.40;;;;;;;15.81;93.76;95212.69;4958741;28;20090;-48
2023/04/15 05:52:58;;;;;;;5.57;3.05;;;;;;;16.17;89.29;95205.25;4965972;28;20089;-52
2023/04/15 05:55:26;;;;;;;6.47;3.78;;;;;;;16.31;86.87;95206.81;4960246;28;21248;-49
2023/04/15 05:57:54;;;;;;;9.27;4.20;;;;;;;16.07;86.91;95205.66;4966311;28;20078;-48
2023/04/15 06:00:22;;;;;;;6.03;3.00;;;;;;;16.49;82.41;95212.28;4957888;28;20138;-48
2023/04/15 06:02:51;;;;;;;6.18;3.08;;;;;;;16.13;86.85;95212.81;4965883;28;20094;-49
2023/04/15 06:05:21;;;;;;;7.57;3.90;;;;;;;17.08;78.98;95211.13;4965304;28;20094;-48
2023/04/15 06:07:50;;;;;;;6.57;3.50;;;;;;;16.59;83.71;95219.81;4969399;28;20082;-50
2023/04/15 06:10:18;;;;;;;7.43;3.95;;;;;;;16.11;87.16;95214.88;4968687;28;20519;-47
2023/04/15 06:12:47;;;;;;;5.72;3.17;;;;;;;16.29;90.37;95216.88;4967453;28;20093;-50
2023/04/15 06:15:16;;;;;;;4.97;3.22;;;;;;;16.82;82.87;95209.44;4966960;28;20074;-47
2023/04/15 06:17:44;;;;;;;4.75;3.03;;;;;;;16.56;80.36;95218.38;4956782;28;20126;-48
2023/04/15 06:20:13;;;;;;;5.85;3.30;;;;;;;16.55;82.01;95219.41;4960449;28;20074;-48
2023/04/15 06:22:42;;;;;;;5.07;2.45;;;;;;;16.70;81.57;95219.13;4947294;28;20081;-51
2023/04/15 06:25:11;;;;;;;3.92;2.42;;;;;;;15.97;81.81;95214.09;4962328;28;20078;-47
2023/04/15 06:27:39;;;;;;;5.32;2.63;;;;;;;16.44;80.81;95219.25;4966539;28;20081;-51
2023/04/15 06:30:08;;;;;;;5.90;3.05;;;;;;;16.66;81.47;95220.59;4960965;28;20079;-52
2023/04/15 06:32:37;;;;;;;6.03;2.75;;;;;;;16.55;76.93;95218.56;4955811;28;20082;-48
2023/04/15 06:35:05;;;;;;;3.22;1.88;;;;;;;16.53;72.75;95223.31;4956936;28;20116;-45
2023/04/15 06:37:34;;;;;;;3.88;2.10;;;;;;;16.38;81.57;95216.44;4964760;28;20467;-51
2023/04/15 06:40:04;;;;;;;5.70;2.17;;;;;;;16.30;78.15;95215.84;4959843;28;20082;-48
2023/04/15 06:42:32;;;;;;;6.28;3.53;;;;;;;17.35;72.11;95215.47;4965987;28;20527;-47
2023/04/15 06:45:01;;;;;;;4.68;1.95;;;;;;;17.18;71.63;95215.19;4962191;28;20098;-51
2023/04/15 06:47:30;;;;;;;4.40;1.63;;;;;;;16.23;76.12;95221.19;4962513;28;20081;-47
2023/04/15 06:49:58;;;;;;;6.40;2.47;;;;;;;16.86;74.72;95223.16;4957991;28;20112;-48
2023/04/15 06:52:26;;;;;;;2.90;2.22;;;;;;;16.44;77.93;95224.56;4965478;28;20081;-50
2023/04/15 06:54:55;;;;;;;2.75;1.38;;;;;;;16.72;74.82;95233.03;4962132;28;20093;-47
2023/04/15 06:57:24;;;;;;;3.20;2.10;;;;;;;17.25;70.88;95229.25;4966628;28;20977;-49
2023/04/15 06:59:53;;;;;;;7.33;2.80;;;;;;;18.10;65.62;95218.03;4959184;28;20475;-48
2023/04/15 07:02:22;;;;;;;4.93;2.30;;;;;;;17.21;66.59;95228.06;4957973;28;20098;-52
2023/04/15 07:04:50;;;;;;;2.88;1.67;;;;;;;17.58;68.83;95231.66;4959342;28;20574;-52
2023/04/15 07:07:18;;;;;;;4.25;3.00;;;;;;;17.98;64.66;95224.13;4967116;28;20086;-54
2023/04/15 07:09:47;;;;;;;5.43;2.13;;;;;;;17.26;67.25;95231.69;4965248;28;20074;-54
2023/04/15 07:12:15;;;;;;;3.20;1.67;;;;;;;17.32;70.32;95230.03;4967372;28;20093;-49
2023/04/15 07:14:45;;;;;;;3.03;1.92;;;;;;;16.96;70.80;95233.34;4965580;28;20078;-51
2023/04/15 07:17:13;;;;;;;3.25;1.83;;;;;;;16.76;73.68;95231.63;4964988;28;20086;-47
2023/04/15 07:19:41;;;;;;;3.25;2.25;;;;;;;16.81;70.91;95233.63;4959521;28;20079;-51
2023/04/15 07:22:10;;;;;;;4.00;2.35;;;;;;;16.79;67.25;95233.88;4969195;28;20500;-51
2023/04/15 07:24:38;;;;;;;3.63;1.88;;;;;;;16.83;71.01;95242.25;4971961;28;20174;-50
2023/04/15 07:27:06;;;;;;;4.55;2.58;;;;;;;17.18;67.93;95233.81;4969865;28;20094;-52
2023/04/15 07:29:35;;;;;;;3.30;2.25;;;;;;;17.40;69.08;95239.59;4968844;28;20062;-48
2023/04/15 07:32:05;;;;;;;3.35;2.08;;;;;;;17.61;67.51;95243.72;4969109;28;20090;-46
2023/04/15 07:34:33;;;;;;;4.13;2.40;;;;;;;18.53;64.57;95239.31;4965420;28;20566;-46
2023/04/15 07:37:02;;;;;;;3.47;1.75;;;;;;;17.58;64.55;95244.16;4965876;28;20078;-47
2023/04/15 07:39:30;;;;;;;4.30;2.58;;;;;;;17.37;65.10;95253.34;4968697;28;20118;-52
2023/04/15 07:41:58;;;;;;;4.15;1.85;;;;;;;17.74;65.03;95248.94;4966718;28;20097;-53
2023/04/15 07:44:27;;;;;;;5.90;2.75;;;;;;;17.60;65.94;95252.78;4964414;28;20090;-50
2023/04/15 07:46:55;;;;;;;6.68;2.80;;;;;;;17.92;63.62;95240.19;4967454;28;20077;-51
2023/04/15 07:49:25;;;;;;;4.00;2.45;;;;;;;17.36;66.24;95252.53;4965989;28;20078;-46
2023/04/15 07:51:53;;;;;;;4.30;2.60;;;;;;;17.69;63.74;95236.28;4966510;28;20531;-46
2023/04/15 07:54:22;;;;;;;8.43;2.88;;;;;;;17.73;65.52;95239.31;4964986;28;20513;-44
2023/04/15 07:56:50;;;;;;;6.10;3.10;;;;;;;18.35;60.04;95229.47;4968641;28;20082;-46
2023/04/15 07:59:18;;;;;;;6.32;2.35;;;;;;;17.98;61.31;95232.13;4956993;28;20542;-45
2023/04/15 08:01:47;;;;;;;4.65;2.05;;;;;;;17.35;65.14;95232.25;4969264;28;20082;-50
2023/04/15 08:04:15;;;;;;;8.15;2.72;;;;;;;17.61;62.53;95241.06;4967816;28;20086;-47
2023/04/15 08:06:47;;;;;;;3.55;2.00;;;;;;;18.37;58.40;95232.72;4956500;28;20105;-51
2023/04/15 08:09:15;;;;;;;2.15;1.55;;;;;;;18.82;57.38;95231.56;4961068;28;20094;-47
2023/04/15 08:11:43;;;;;;;4.07;2.42;;;;;;;19.13;53.86;95228.69;4961161;28;20105;-44
2023/04/15 08:14:12;;;;;;;4.78;2.50;;;;;;;18.01;58.71;95228.22;4966688;28;22098;-44
2023/04/15 08:16:40;;;;;;;4.13;2.42;;;;;;;18.04;60.79;95233.09;4966411;28;20108;-48
2023/04/15 08:19:08;;;;;;;4.35;2.65;;;;;;;18.53;57.21;95227.84;4968481;28;20082;-47
2023/04/15 08:21:36;;;;;;;7.60;2.90;;;;;;;18.45;59.23;95223.63;4967456;28;20109;-46
2023/04/15 08:24:06;;;;;;;4.88;2.75;;;;;;;19.24;55.19;95224.41;4970923;28;20535;-46
2023/04/15 08:26:35;;;;;;;7.38;2.15;;;;;;;18.15;55.27;95231.56;4965375;28;20090;-46
2023/04/15 08:29:03;;;;;;;4.03;2.22;;;;;;;19.00;54.64;95220.88;4969697;28;20090;-47
2023/04/15 08:31:32;;;;;;;6.10;2.05;;;;;;;18.73;53.94;95231.91;4970180;28;20094;-48
2023/04/15 08:34:00;;;;;;;5.65;2.75;;;;;;;18.75;54.93;95239.69;4969798;28;20487;-51
2023/04/15 08:36:29;;;;;;;4.82;2.42;;;;;;;18.50;55.86;95243.25;4971062;28;20089;-45
2023/04/15 08:38:57;;;;;;;4.50;2.15;;;;;;;18.43;55.71;95239.84;4970958;28;20097;-47
2023/04/15 08:41:27;;;;;;;7.00;2.63;;;;;;;18.78;53.03;95238.41;4971048;28;20692;-47
2023/04/15 08:43:58;;;;;;;5.80;2.65;;;;;;;18.81;53.92;95241.44;4971256;28;20090;-48
2023/04/15 08:46:27;;;;;;;4.13;1.88;;;;;;;19.40;51.12;95245.13;4970974;28;20082;-49
2023/04/15 08:48:57;;;;;;;4.57;2.22;;;;;;;19.53;51.03;95246.78;4970020;28;20514;-46
2023/04/15 08:51:26;;;;;;;5.05;2.70;;;;;;;19.44;49.55;95246.31;4969528;28;20074;-45
2023/04/15 08:53:54;;;;;;;7.38;2.65;;;;;;;19.65;50.10;95239.63;4969006;28;20090;-48
2023/04/15 08:56:25;;;;;;;2.50;1.63;;;;;;;19.38;48.80;95249.09;4970503;28;20483;-45
2023/04/15 08:58:55;;;;;;;7.85;2.50;;;;;;;20.58;48.83;95237.94;4969724;28;20102;-47
2023/04/15 09:01:23;;;;;;;4.15;1.92;;;;;;;19.35;51.10;95247.69;4969040;28;20082;-47
2023/04/15 09:03:53;;;;;;;3.65;2.20;;;;;;;19.48;50.68;95245.81;4971667;28;20079;-46
2023/04/15 09:06:23;;;;;;;4.40;2.25;;;;;;;19.25;50.93;95249.28;4969806;28;20090;-46
2023/04/15 09:08:54;;;;;;;4.75;2.00;;;;;;;19.61;49.67;95253.63;4970511;28;20082;-46
2023/04/15 09:11:22;;;;;;;;;;;;;;;19.56;51.31;95253.53;4971467;28;20078;-45
2023/04/15 09:13:51;;;;;;;5.30;2.08;;;;;;;20.16;49.29;95247.97;4971000;28;19969;-47
2023/04/15 09:16:20;;;;;;;6.63;2.53;;;;;;;20.30;52.10;95248.53;4970545;28;20111;-47
2023/04/15 09:18:49;;;;;;;4.57;2.20;;;;;;;19.65;49.05;95253.00;4969414;28;20090;-46
2023/04/15 09:21:18;;;;;;;5.55;2.38;;;;;;;19.57;49.51;95252.47;4967040;28;20885;-46
2023/04/15 09:23:57;;;;;;;4.07;1.75;;;;;;;19.07;51.04;95255.50;4966502;28;20082;-47
2023/04/15 09:26:32;;;;;;;5.60;2.35;;;;;;;19.24;51.39;95253.00;4968789;28;20093;-46
2023/04/15 09:29:06;;;;;;;2.47;1.63;;;;;;;19.00;48.89;95252.94;4970969;28;20090;-46
2023/04/15 09:31:36;;;;;;;8.15;2.40;;;;;;;19.35;51.00;95247.69;4953065;28;20070;-46
2023/04/15 09:34:05;;;;;;;4.10;1.73;;;;;;;18.96;50.96;95260.56;4970854;28;20089;-44
2023/04/15 09:36:51;;;;;;;4.65;2.30;;;;;;;19.04;49.06;95261.31;4963942;28;20529;-46
2023/04/15 09:39:20;;;;;;;5.18;2.97;;;;;;;20.33;48.15;95253.44;4968546;28;20082;-45
2023/04/15 09:42:04;;;;;;;3.92;1.88;;;;;;;19.10;47.03;95269.22;4950214;28;20063;-47
2023/04/15 09:44:33;;;;;;;4.63;2.60;;;;;;;19.64;48.29;95264.72;4961812;28;20074;-46
2023/04/15 09:47:02;;;;;;;5.55;3.20;;;;;;;19.19;49.22;95259.00;4968541;28;20074;-52
2023/04/15 09:49:31;;;;;;;6.15;2.70;;;;;;;20.22;48.13;95254.28;4969448;28;20085;-48
2023/04/15 09:52:00;;;;;;;6.57;3.17;;;;;;;20.06;46.75;95253.94;4952906;28;20123;-47
2023/04/15 09:54:37;;;;;;;6.57;2.70;;;;;;;18.92;47.89;95255.91;4969610;28;20078;-46
2023/04/15 09:57:07;;;;;;;7.53;3.05;;;;;;;19.84;49.29;95253.69;4968899;28;20085;-46
2023/04/15 09:59:35;;;;;;;4.45;2.60;;;;;;;19.68;46.83;95257.88;4969720;28;20505;-44
2023/04/15 10:02:06;;;;;;;4.97;2.40;;;;;;;19.06;47.53;95260.00;4971840;28;20439;-46
2023/04/15 10:04:37;;;;;;;5.10;3.22;;;;;;;18.88;49.05;95260.06;4970738;28;20078;-45
2023/04/15 10:07:06;;;;;;;6.65;2.65;;;;;;;19.82;48.27;95260.31;4969808;28;20833;-44
2023/04/15 10:09:35;;;;;;;7.38;3.22;;;;;;;19.24;48.71;95271.72;4969272;28;20082;-47
2023/04/15 10:12:04;;;;;;;7.20;2.78;;;;;;;19.15;50.40;95272.03;4969533;28;20082;-50
2023/04/15 10:14:35;;;;;;;3.85;2.33;;;;;;;18.74;52.04;95272.78;4968748;28;20089;-47
2023/04/15 10:17:05;;;;;;;9.02;3.13;;;;;;;18.48;53.00;95273.91;4966943;28;20089;-44
2023/04/15 10:19:37;;;;;;;2.20;1.38;;;;;;;18.85;51.17;95271.19;4969404;28;20089;-43
2023/04/15 10:22:06;;;;;;;5.13;3.03;;;;;;;19.62;50.63;95272.16;4970003;28;20082;-45
2023/04/15 10:24:35;;;;;;;4.65;2.55;;;;;;;18.97;50.17;95277.41;4969690;28;20104;-45
2023/04/15 10:27:04;;;;;;;5.63;2.88;;;;;;;18.52;49.04;95280.41;4969709;28;20082;-44
2023/04/15 10:29:32;;;;;;;8.45;2.67;;;;;;;18.91;49.97;95275.66;4967426;28;20082;-47
2023/04/15 10:32:01;;;;;;;6.35;3.80;;;;;;;18.92;49.60;95271.94;4968459;28;20078;-45
2023/04/15 10:34:31;;;;;;;4.93;2.47;;;;;;;18.35;51.61;95277.53;4971247;28;20083;-42
2023/04/15 10:37:02;;;;;;;5.80;2.65;;;;;;;18.79;50.89;95277.44;4969325;28;20078;-47
2023/04/15 10:39:39;;;;;;;7.88;3.60;;;;;;;18.52;52.17;95274.25;4970338;28;20535;-48
2023/04/15 10:42:08;;;;;;;5.90;3.40;;;;;;;18.76;52.70;95285.91;4969658;28;20082;-46
2023/04/15 10:44:38;;;;;;;5.97;3.22;;;;;;;19.23;50.68;95288.78;4967871;28;20093;-45
2023/04/15 10:47:17;;;;;;;6.97;3.15;;;;;;;19.75;49.88;95283.69;4970123;28;20092;-50
2023/04/15 10:49:49;;;;;;;6.97;2.13;;;;;;;19.85;49.25;95278.59;4968494;28;20182;-54
2023/04/15 10:52:23;;;;;;;5.07;3.40;;;;;;;20.07;48.93;95285.00;4970000;28;20090;-48
2023/04/15 10:55:02;;;;;;;4.85;2.88;;;;;;;19.50;49.04;95283.84;4963877;28;20538;-46
2023/04/15 10:57:34;;;;;;;9.93;3.63;;;;;;;19.56;49.28;95285.63;4966956;28;20764;-47
2023/04/15 11:00:11;;;;;;;8.30;3.97;;;;;;;20.31;47.53;95277.78;4968641;28;20082;-49
2023/04/15 11:02:45;;;;;;;5.65;3.40;;;;;;;20.20;46.66;95277.78;4969258;28;20074;-51
2023/04/15 11:05:16;;;;;;;4.22;2.78;;;;;;;20.28;47.33;95280.91;4972010;28;20090;-48
2023/04/15 11:07:49;;;;;;;3.17;2.30;;;;;;;20.36;45.96;95283.22;4968648;28;20090;-58
2023/04/15 11:10:54;;;;;;;6.38;3.15;;;;;;;20.56;45.67;95280.22;4969417;28;20086;-53
2023/04/15 11:13:31;;;;;;;4.80;3.33;;;;;;;20.42;46.83;95281.50;4968351;28;20530;-55
2023/04/15 11:16:01;;;;;;;5.93;3.22;;;;;;;20.58;46.89;95278.13;4968105;28;20086;-47
2023/04/15 11:18:34;;;;;;;4.63;2.08;;;;;;;19.80;46.88;95283.81;4969058;28;20534;-55
2023/04/15 11:21:05;;;;;;;7.22;3.95;;;;;;;19.61;48.74;95291.06;4969064;28;20086;-48
2023/04/15 11:23:37;;;;;;;6.68;4.28;;;;;;;20.30;nan;95275.31;4966150;28;20468;-52
2023/04/15 11:26:08;;;;;;;6.00;4.07;;;;;;;20.80;48.06;95280.97;4967895;28;20077;-51
2023/04/15 11:28:38;;;;;;;3.28;1.95;;;;;;;20.75;44.36;95286.25;4970025;28;20105;-54
2023/04/15 11:31:09;;;;;;;7.97;4.25;;;;;;;20.86;45.26;95287.25;4968466;28;20500;-55
2023/04/15 11:33:44;;;;;;;3.63;2.38;;;;;;;20.86;44.98;95284.56;4968617;28;20090;-53
2023/04/15 11:36:14;;;;;;;11.98;4.15;;;;;;;21.03;46.10;95279.28;4968752;28;20089;-52
2023/04/15 11:38:43;;;;;;;5.70;3.70;;;;;;;20.31;45.25;95290.34;4968485;28;20097;-55